Time;durP1;ratioP1;P1;durP2;ratioP2;P2;SDS_P1;SDS_P2;PMS_P1;PMS_P2;Temp;Humidity;BMP_temperature;BMP_pressure;BME280_temperature;BME280_humidity;BME280_pressure;Samples;Min_cycle;Max_cycle;Signal;HPM_P1;HPM_P2
2022/09/11 00:02:16;;;;;;;5.40;3.40;;;;;;;17.01;65.94;98539.58;238622;1191;138947;-57
2022/09/11 00:07:20;;;;;;;7.00;3.30;;;;;;;16.98;65.83;98532.86;238445;1191;139312;-57
2022/09/11 00:12:23;;;;;;;7.80;3.70;;;;;;;16.90;65.70;98532.58;238485;1191;138897;-57
2022/09/11 00:17:26;;;;;;;8.00;3.80;;;;;;;16.87;65.75;98536.10;238640;1190;139564;-57
2022/09/11 00:22:29;;;;;;;8.00;3.90;;;;;;;16.90;66.07;98527.23;238773;1190;139220;-57
2022/09/11 00:27:32;;;;;;;5.80;3.50;;;;;;;16.86;65.76;98525.29;238509;1192;139068;-56
2022/09/11 00:32:35;;;;;;;7.50;4.60;;;;;;;16.85;66.23;98528.11;238440;1191;138726;-57
2022/09/11 00:37:38;;;;;;;8.80;4.60;;;;;;;16.83;66.37;98526.56;238519;1190;139055;-57
2022/09/11 00:42:42;;;;;;;7.60;4.50;;;;;;;16.83;66.19;98525.92;238798;1190;139803;-57
2022/09/11 00:47:46;;;;;;;8.10;4.40;;;;;;;16.87;66.27;98525.23;238497;1191;139311;-57
2022/09/11 00:52:56;;;;;;;7.30;4.80;;;;;;;16.92;66.34;98524.73;238277;1192;138727;-57
2022/09/11 00:58:06;;;;;;;6.40;4.90;;;;;;;16.93;66.16;98527.48;238672;1190;138880;-56
2022/09/11 01:03:10;;;;;;;9.50;5.60;;;;;;;16.89;66.26;98525.58;238869;1190;138448;-57
2022/09/11 01:08:13;;;;;;;6.50;5.30;;;;;;;16.82;66.44;98523.38;238418;1191;138818;-57
2022/09/11 01:13:42;;;;;;;7.90;5.40;;;;;;;16.83;66.27;98526.13;238202;1192;140151;-57
2022/09/11 01:18:50;;;;;;;7.40;5.80;;;;;;;16.83;66.35;98521.29;238616;1190;140319;-56
2022/09/11 01:24:13;;;;;;;9.40;6.20;;;;;;;16.87;66.64;98524.65;238838;1190;138500;-57
2022/09/11 01:29:24;;;;;;;7.50;5.90;;;;;;;16.91;66.59;98521.26;238668;1190;139558;-57
2022/09/11 01:34:49;;;;;;;7.10;5.90;;;;;;;16.88;66.70;98519.38;238449;1191;138612;-57
2022/09/11 01:40:02;;;;;;;9.40;5.90;;;;;;;16.87;66.58;98513.91;238871;1190;140281;-57
2022/09/11 01:45:12;;;;;;;7.20;5.70;;;;;;;16.90;66.91;98511.81;238785;1190;139378;-57
2022/09/11 01:50:19;;;;;;;6.80;5.90;;;;;;;16.91;66.74;98509.27;238525;1192;139007;-58
2022/09/11 01:55:33;;;;;;;8.90;6.00;;;;;;;16.88;66.97;98504.09;238451;1192;138844;-58
2022/09/11 02:00:38;;;;;;;8.30;5.90;;;;;;;16.84;66.88;98507.05;238608;1190;139063;-57
2022/09/11 02:06:14;;;;;;;8.20;5.80;;;;;;;16.84;66.92;98505.67;238829;1190;141257;-58
2022/09/11 02:11:19;;;;;;;11.00;6.40;;;;;;;16.85;67.06;98496.87;238573;1191;139873;-57
2022/09/11 02:16:33;;;;;;;8.90;6.10;;;;;;;16.86;66.94;98488.92;238671;1190;139101;-58
2022/09/11 02:21:37;;;;;;;13.00;6.80;;;;;;;16.83;66.85;98490.81;238676;1191;138726;-57
2022/09/11 02:26:46;;;;;;;11.20;7.30;;;;;;;16.78;67.10;98481.05;238539;1191;139408;-57
2022/09/11 02:31:51;;;;;;;11.40;8.00;;;;;;;16.75;67.00;98472.28;238457;1191;140457;-58
2022/09/11 02:37:21;;;;;;;17.20;10.90;;;;;;;16.76;67.32;98474.41;238563;1192;139413;-57
2022/09/11 02:42:55;;;;;;;17.60;11.60;;;;;;;16.80;67.14;98475.53;238723;1190;139120;-57
2022/09/11 02:48:24;;;;;;;17.50;12.40;;;;;;;16.78;67.14;98472.09;238640;1190;139361;-57
2022/09/11 02:53:38;;;;;;;17.90;11.50;;;;;;;16.75;67.17;98468.60;238460;1191;139099;-58
2022/09/11 02:59:11;;;;;;;19.00;11.50;;;;;;;16.78;67.37;98464.60;238419;1191;140266;-58
2022/09/11 03:04:14;;;;;;;17.10;10.70;;;;;;;16.85;67.63;98466.42;238867;1190;139717;-57
2022/09/11 03:09:18;;;;;;;12.80;9.70;;;;;;;16.90;67.62;98475.09;238695;1190;139184;-58
2022/09/11 03:14:23;;;;;;;12.30;8.60;;;;;;;16.88;67.51;98469.52;238614;1191;139713;-57
2022/09/11 03:19:27;;;;;;;10.90;7.60;;;;;;;16.86;67.44;98472.52;238457;1190;138699;-57
2022/09/11 03:24:30;;;;;;;11.50;7.20;;;;;;;16.84;67.45;98474.98;238607;1191;139830;-57
2022/09/11 03:29:34;;;;;;;12.00;9.60;;;;;;;16.87;67.64;98475.62;238691;1190;139607;-57
2022/09/11 03:34:37;;;;;;;18.90;13.50;;;;;;;16.85;67.63;98481.65;238512;1192;139031;-57
2022/09/11 03:39:42;;;;;;;18.60;13.10;;;;;;;16.75;67.34;98481.03;238558;1192;140292;-57
2022/09/11 03:44:45;;;;;;;16.00;13.20;;;;;;;16.66;67.68;98480.25;238575;1190;236978;-57
2022/09/11 03:49:48;;;;;;;17.80;13.20;;;;;;;16.63;67.43;98481.42;238578;1190;139922;-57
2022/09/11 03:54:52;;;;;;;20.20;17.70;;;;;;;16.66;67.86;98485.46;238518;1190;142420;-57
2022/09/11 03:59:55;;;;;;;28.70;19.10;;;;;;;16.63;67.78;98486.77;238648;1190;139370;-57
2022/09/11 04:04:58;;;;;;;19.20;15.80;;;;;;;16.59;67.56;98487.89;238672;1190;139744;-56
2022/09/11 04:10:02;;;;;;;18.60;13.50;;;;;;;16.53;67.72;98483.08;238809;1190;139417;-57
2022/09/11 04:15:06;;;;;;;14.90;11.70;;;;;;;16.55;67.77;98486.64;238598;1190;140572;-57
2022/09/11 04:20:10;;;;;;;13.20;11.10;;;;;;;16.56;67.53;98487.48;238291;1191;139326;-56
2022/09/11 04:25:14;;;;;;;10.70;9.30;;;;;;;16.60;67.64;98496.44;238656;1190;139390;-57
2022/09/11 04:30:18;;;;;;;9.50;8.20;;;;;;;16.62;67.83;98496.25;238706;1190;139057;-57
2022/09/11 04:35:23;;;;;;;10.30;6.20;;;;;;;16.59;67.59;98494.02;238475;1190;138745;-56
2022/09/11 04:40:31;;;;;;;9.20;6.20;;;;;;;16.55;67.52;98491.66;238544;1192;140399;-57
2022/09/11 04:45:35;;;;;;;10.50;6.20;;;;;;;16.59;67.57;98490.06;238810;1190;139351;-57
2022/09/11 04:50:40;;;;;;;9.50;6.10;;;;;;;16.64;67.64;98491.04;238580;1190;139251;-57
2022/09/11 04:55:49;;;;;;;8.30;6.70;;;;;;;16.62;67.62;98489.09;238576;1191;139853;-57
2022/09/11 05:00:53;;;;;;;9.40;7.60;;;;;;;16.59;67.57;98492.21;238678;1191;141065;-57
2022/09/11 05:05:56;;;;;;;9.50;7.70;;;;;;;16.59;67.44;98488.83;238465;1191;140645;-56
2022/09/11 05:11:00;;;;;;;14.20;8.60;;;;;;;16.55;67.32;98491.55;238609;1191;139557;-57
2022/09/11 05:16:11;;;;;;;11.40;9.30;;;;;;;16.55;67.55;98483.64;238750;1190;139019;-57
2022/09/11 05:21:16;;;;;;;15.40;12.20;;;;;;;16.56;67.76;98478.49;238512;1190;139725;-58
2022/09/11 05:26:29;;;;;;;20.60;13.40;;;;;;;16.60;67.68;98485.85;238328;1191;140517;-57
2022/09/11 05:31:33;;;;;;;13.50;10.10;;;;;;;16.66;68.00;98489.80;238442;1190;140522;-57
2022/09/11 05:36:36;;;;;;;15.80;10.70;;;;;;;16.69;67.81;98489.61;238704;1190;139782;-57
2022/09/11 05:41:39;;;;;;;14.40;11.10;;;;;;;16.70;67.92;98489.35;238719;1190;139199;-58
2022/09/11 05:46:43;;;;;;;14.00;11.10;;;;;;;16.73;67.80;98494.91;238361;1190;139284;-55
2022/09/11 05:51:46;;;;;;;12.90;9.80;;;;;;;16.73;67.96;98493.66;238738;1190;139231;-57
2022/09/11 05:56:49;;;;;;;15.10;10.70;;;;;;;16.75;67.95;98491.42;238425;1191;140408;-57
2022/09/11 06:01:57;;;;;;;14.90;11.60;;;;;;;16.81;67.82;98495.87;238416;1190;139873;-57
2022/09/11 06:07:13;;;;;;;14.60;12.30;;;;;;;16.84;68.08;98495.58;238666;1191;139569;-57
2022/09/11 06:12:17;;;;;;;17.00;13.40;;;;;;;16.86;68.06;98498.09;238656;1191;140024;-57
2022/09/11 06:17:23;;;;;;;15.30;13.70;;;;;;;16.83;67.90;98494.21;238690;1190;139480;-57
2022/09/11 06:22:28;;;;;;;15.30;13.60;;;;;;;16.90;67.99;98496.79;238719;1190;139575;-57
2022/09/11 06:27:31;;;;;;;17.60;14.80;;;;;;;16.93;67.84;98502.89;238504;1190;139456;-57
2022/09/11 06:32:35;;;;;;;16.80;14.40;;;;;;;16.99;67.98;98505.58;238493;1190;139501;-57
2022/09/11 06:37:39;;;;;;;16.70;13.20;;;;;;;17.02;67.96;98496.81;238756;1190;141427;-58
2022/09/11 06:42:43;;;;;;;14.60;12.50;;;;;;;17.11;67.80;98490.38;238628;1190;139771;-58
2022/09/11 06:47:48;;;;;;;16.50;12.70;;;;;;;17.22;67.78;98491.86;238867;1190;139798;-58
2022/09/11 06:52:51;;;;;;;13.50;11.80;;;;;;;17.28;67.63;98491.46;238484;1191;138848;-58
2022/09/11 06:58:01;;;;;;;12.30;11.10;;;;;;;17.27;67.66;98491.92;238666;1191;138777;-58
2022/09/11 07:03:06;;;;;;;11.40;10.30;;;;;;;17.26;67.49;98494.34;238728;1190;138977;-58
2022/09/11 07:08:11;;;;;;;13.40;10.40;;;;;;;17.29;67.55;98488.18;238544;1191;140431;-58
2022/09/11 07:13:16;;;;;;;15.00;12.00;;;;;;;17.35;67.58;98487.58;238523;1190;139914;-58
2022/09/11 07:18:20;;;;;;;12.60;11.30;;;;;;;17.41;67.52;98482.44;238688;1190;139047;-58
2022/09/11 07:23:23;;;;;;;15.60;12.60;;;;;;;17.45;67.32;98481.33;238618;1190;140470;-58
2022/09/11 07:28:26;;;;;;;11.70;10.60;;;;;;;17.48;67.22;98488.59;238884;1190;139780;-57
2022/09/11 07:33:29;;;;;;;12.30;11.00;;;;;;;17.51;67.05;98488.98;238565;1190;139988;-58
2022/09/11 07:38:34;;;;;;;;;;;;;;;17.54;67.12;98489.63;238685;1190;140850;-58
2022/09/11 07:43:49;;;;;;;13.80;12.20;;;;;;;17.51;66.97;98492.59;238776;1190;125265;-59
2022/09/11 07:48:56;;;;;;;17.10;14.40;;;;;;;17.46;66.87;98493.55;238640;1191;139379;-58
2022/09/11 07:54:00;;;;;;;12.70;11.40;;;;;;;17.42;66.92;98495.08;238467;1190;141032;-58
2022/09/11 07:59:08;;;;;;;15.90;10.70;;;;;;;17.42;67.10;98489.73;238834;1190;140721;-58
2022/09/11 08:04:13;;;;;;;13.30;11.40;;;;;;;17.52;67.15;98501.30;238801;1190;140082;-58
2022/09/11 08:09:18;;;;;;;14.10;11.60;;;;;;;17.57;67.35;98498.66;238465;1191;139643;-57
2022/09/11 08:14:30;;;;;;;12.10;10.90;;;;;;;17.57;67.27;98502.70;238541;1190;139364;-58
2022/09/11 08:19:41;;;;;;;10.70;9.20;;;;;;;17.50;66.97;98508.48;238706;1190;138874;-58
2022/09/11 08:24:44;;;;;;;10.50;9.40;;;;;;;17.54;67.18;98506.87;238702;1190;139886;-58
2022/09/11 08:29:50;;;;;;;11.10;9.80;;;;;;;17.59;67.26;98507.39;238505;1190;140015;-57
2022/09/11 08:34:53;;;;;;;11.60;10.00;;;;;;;17.59;67.25;98507.60;238577;1192;138705;-57
2022/09/11 08:39:56;;;;;;;11.10;9.90;;;;;;;17.59;67.17;98506.45;238738;1190;140134;-60
2022/09/11 08:45:01;;;;;;;8.20;7.10;;;;;;;17.57;67.24;98507.35;238697;1190;140510;-57
2022/09/11 08:50:40;;;;;;;6.30;5.70;;;;;;;17.61;67.54;98507.59;238505;1191;141048;-59
2022/09/11 08:55:49;;;;;;;7.60;6.80;;;;;;;17.64;67.62;98513.74;238427;1190;139500;-59
2022/09/11 09:01:34;;;;;;;9.20;6.30;;;;;;;17.64;67.66;98517.14;238687;1190;139072;-58
2022/09/11 09:07:04;;;;;;;7.10;6.40;;;;;;;17.63;67.52;98516.12;238621;1190;139217;-59
2022/09/11 09:12:37;;;;;;;7.80;4.90;;;;;;;17.59;67.73;98521.59;238722;1190;139759;-59
2022/09/11 09:18:07;;;;;;;5.80;5.20;;;;;;;17.61;67.88;98520.05;238710;1190;139589;-58
2022/09/11 09:23:42;;;;;;;7.70;5.30;;;;;;;17.74;68.15;98520.73;238550;1191;139534;-58
2022/09/11 09:28:54;;;;;;;7.00;5.40;;;;;;;17.83;68.04;98525.67;238584;1190;139257;-59
2022/09/11 09:34:19;;;;;;;7.20;5.40;;;;;;;17.88;67.84;98531.10;238824;1190;138656;-59
2022/09/11 09:39:23;;;;;;;;;;;;;;;18.00;68.12;98524.50;238729;1190;139708;-59
2022/09/11 09:44:42;;;;;;;6.30;5.70;;;;;;;18.06;67.90;98522.77;238765;1190;125674;-58
2022/09/11 09:49:48;;;;;;;6.10;5.50;;;;;;;18.12;67.89;98527.54;238728;1190;138908;-59
2022/09/11 09:54:56;;;;;;;7.10;6.10;;;;;;;18.14;67.62;98527.89;238852;1190;139771;-57
2022/09/11 10:00:09;;;;;;;6.00;5.40;;;;;;;18.15;67.72;98528.14;238657;1190;138897;-58
2022/09/11 10:05:29;;;;;;;5.10;4.60;;;;;;;18.23;67.78;98525.17;238806;1189;139959;-57
2022/09/11 10:10:37;;;;;;;5.50;5.00;;;;;;;18.27;67.66;98515.98;238753;1190;139280;-58
2022/09/11 10:15:41;;;;;;;6.60;5.00;;;;;;;18.34;67.83;98523.37;238781;1190;138771;-57
2022/09/11 10:20:47;;;;;;;5.40;4.90;;;;;;;18.38;67.47;98524.92;238764;1190;139636;-58
2022/09/11 10:25:50;;;;;;;6.70;4.00;;;;;;;18.37;67.49;98530.79;238793;1190;139001;-58
2022/09/11 10:31:01;;;;;;;5.70;4.40;;;;;;;18.35;67.36;98529.88;238741;1190;140285;-57
2022/09/11 10:36:08;;;;;;;4.70;4.20;;;;;;;18.39;67.41;98527.31;238876;1190;139370;-58
2022/09/11 10:41:11;;;;;;;5.10;4.60;;;;;;;18.47;67.59;98529.36;238772;1190;138863;-58
2022/09/11 10:46:17;;;;;;;7.30;5.20;;;;;;;18.57;67.45;98526.41;238546;1192;139281;-58
2022/09/11 10:51:24;;;;;;;4.60;4.20;;;;;;;18.63;67.48;98523.20;238662;1190;139336;-58
2022/09/11 10:56:27;;;;;;;4.40;3.40;;;;;;;18.64;67.29;98517.88;238763;1190;139671;-57
2022/09/11 11:01:30;;;;;;;4.20;3.70;;;;;;;18.61;66.97;98520.90;238602;1190;139818;-57
2022/09/11 11:06:56;;;;;;;5.30;4.10;;;;;;;18.64;67.18;98529.98;238638;1191;138574;-56
2022/09/11 11:12:18;;;;;;;;;;;;;;;18.66;67.16;98529.38;238835;1190;139094;-56
2022/09/11 11:17:53;;;;;;;4.30;3.50;;;;;;;18.60;66.86;98534.83;238773;1190;125682;-57
2022/09/11 11:23:00;;;;;;;3.30;2.60;;;;;;;18.49;66.83;98545.90;238582;1192;139613;-56
2022/09/11 11:28:22;;;;;;;3.80;3.00;;;;;;;18.42;66.80;98536.87;238752;1190;140230;-57
2022/09/11 11:33:54;;;;;;;3.90;2.40;;;;;;;18.40;66.75;98540.33;238714;1190;139377;-58
2022/09/11 11:39:00;;;;;;;4.90;2.80;;;;;;;18.35;66.81;98542.41;238743;1190;138461;-58
2022/09/11 11:44:11;;;;;;;3.20;2.90;;;;;;;18.27;66.87;98546.36;238528;1192;141327;-57
2022/09/11 11:49:22;;;;;;;4.10;2.30;;;;;;;18.19;66.88;98548.17;238627;1190;138731;-58
2022/09/11 11:54:40;;;;;;;2.70;2.50;;;;;;;18.15;66.73;98547.54;238761;1190;139842;-57
2022/09/11 11:59:54;;;;;;;2.50;2.20;;;;;;;18.24;67.40;98535.88;238784;1190;139262;-57
2022/09/11 12:05:06;;;;;;;3.10;2.80;;;;;;;18.32;67.19;98541.48;238744;1190;139560;-57
2022/09/11 12:10:21;;;;;;;2.50;2.30;;;;;;;18.38;67.37;98537.14;238922;1190;139739;-56
2022/09/11 12:15:30;;;;;;;2.50;2.20;;;;;;;18.46;67.26;98534.67;238733;1190;139883;-57
2022/09/11 12:20:35;;;;;;;2.20;2.00;;;;;;;18.61;67.15;98542.26;238586;1191;139644;-57
2022/09/11 12:25:48;;;;;;;3.50;2.40;;;;;;;18.85;67.31;98536.98;238746;1190;139411;-57
2022/09/11 12:31:12;;;;;;;2.50;2.10;;;;;;;19.13;66.83;98533.53;238732;1190;139484;-58
2022/09/11 12:36:32;;;;;;;3.30;2.30;;;;;;;19.22;66.39;98536.31;238482;1191;139487;-56
2022/09/11 12:41:35;;;;;;;3.20;2.60;;;;;;;19.37;66.23;98532.17;238590;1190;138892;-57
2022/09/11 12:46:47;;;;;;;8.40;6.30;;;;;;;19.43;66.02;98526.34;238759;1190;139449;-57
2022/09/11 12:51:57;;;;;;;3.80;2.80;;;;;;;19.38;65.57;98524.22;238829;1190;139252;-58
2022/09/11 12:57:14;;;;;;;2.60;2.40;;;;;;;19.28;65.46;98513.89;238713;1190;139773;-56
2022/09/11 13:02:37;;;;;;;3.30;2.10;;;;;;;19.22;65.27;98514.41;238647;1190;139348;-57
2022/09/11 13:07:50;;;;;;;2.50;2.20;;;;;;;19.18;65.13;98508.73;238606;1191;139651;-57
2022/09/11 13:12:56;;;;;;;3.70;2.40;;;;;;;19.21;65.20;98506.59;238700;1190;139351;-57
2022/09/11 13:17:59;;;;;;;4.00;2.20;;;;;;;19.19;65.09;98514.67;238749;1190;139053;-58
2022/09/11 13:23:17;;;;;;;4.20;2.40;;;;;;;19.11;64.85;98517.27;238500;1190;139545;-57
2022/09/11 13:28:20;;;;;;;6.80;2.50;;;;;;;19.03;64.71;98514.27;238877;1190;139499;-57
2022/09/11 13:33:31;;;;;;;2.70;2.30;;;;;;;18.91;64.58;98514.08;238694;1190;139047;-58
2022/09/11 13:38:36;;;;;;;4.60;2.40;;;;;;;18.85;64.84;98519.02;238737;1190;139813;-57
2022/09/11 13:43:47;;;;;;;3.70;2.60;;;;;;;18.84;65.06;98518.25;238726;1190;139545;-59
2022/09/11 13:49:16;;;;;;;4.60;2.30;;;;;;;18.82;65.28;98519.48;238493;1191;139314;-58
2022/09/11 13:54:29;;;;;;;3.60;2.80;;;;;;;18.77;65.26;98516.80;238603;1190;138959;-58
2022/09/11 13:59:41;;;;;;;6.50;2.60;;;;;;;18.76;65.38;98512.79;238659;1190;139418;-57
2022/09/11 14:04:46;;;;;;;3.00;2.60;;;;;;;18.81;65.62;98505.77;238515;1190;139221;-57
2022/09/11 14:10:22;;;;;;;5.60;2.90;;;;;;;18.88;65.72;98490.88;238416;1190;139452;-56
2022/09/11 14:15:29;;;;;;;3.80;3.20;;;;;;;19.00;66.14;98490.39;238424;1191;139786;-57
2022/09/11 14:20:33;;;;;;;2.90;2.70;;;;;;;19.10;66.17;98489.69;238713;1191;139508;-58
2022/09/11 14:25:36;;;;;;;2.90;2.60;;;;;;;19.13;65.85;98496.92;238487;1192;139042;-57
2022/09/11 14:30:39;;;;;;;3.30;2.70;;;;;;;19.12;65.63;98500.45;238663;1190;139357;-57
2022/09/11 14:35:44;;;;;;;4.90;2.00;;;;;;;19.10;65.54;98485.55;238666;1190;139912;-57
2022/09/11 14:40:54;;;;;;;5.70;2.30;;;;;;;19.08;65.34;98489.45;238657;1190;139958;-58
2022/09/11 14:45:58;;;;;;;4.40;2.50;;;;;;;19.03;65.37;98491.42;238676;1191;139462;-56
2022/09/11 14:51:06;;;;;;;5.20;2.30;;;;;;;18.99;65.37;98487.02;238614;1191;139264;-57
2022/09/11 14:56:15;;;;;;;4.20;2.20;;;;;;;18.91;65.37;98494.70;238647;1191;140082;-57
2022/09/11 15:01:18;;;;;;;3.20;2.40;;;;;;;18.84;65.44;98497.87;238729;1190;140068;-57
2022/09/11 15:06:21;;;;;;;4.10;2.70;;;;;;;18.80;65.51;98505.70;238649;1190;139322;-58
2022/09/11 15:11:25;;;;;;;3.70;2.40;;;;;;;18.75;65.68;98513.94;238546;1192;139488;-58
2022/09/11 15:16:28;;;;;;;3.80;2.70;;;;;;;18.71;65.85;98517.77;238744;1190;139198;-57
2022/09/11 15:21:31;;;;;;;8.80;2.40;;;;;;;18.63;65.71;98520.70;238704;1190;139405;-57
2022/09/11 15:26:39;;;;;;;4.70;3.30;;;;;;;18.60;65.70;98520.52;238607;1192;139382;-57
2022/09/11 15:31:42;;;;;;;5.90;3.30;;;;;;;18.55;65.72;98514.22;238487;1192;139094;-57
2022/09/11 15:36:46;;;;;;;4.80;3.00;;;;;;;18.53;65.86;98511.34;238658;1190;139351;-57
2022/09/11 15:41:49;;;;;;;3.50;3.10;;;;;;;18.49;65.49;98520.20;238725;1190;138945;-57
2022/09/11 15:46:53;;;;;;;3.40;2.50;;;;;;;18.43;65.36;98528.66;238399;1191;138599;-57
2022/09/11 15:51:57;;;;;;;3.60;2.70;;;;;;;18.47;65.29;98533.39;238545;1192;139741;-56
2022/09/11 15:57:01;;;;;;;2.90;2.60;;;;;;;18.45;64.85;98541.30;238561;1190;139238;-58
2022/09/11 16:02:04;;;;;;;6.90;5.40;;;;;;;18.39;64.47;98538.42;238642;1190;139281;-58
2022/09/11 16:07:07;;;;;;;5.60;3.00;;;;;;;18.33;64.35;98540.71;238598;1190;139618;-57
2022/09/11 16:12:10;;;;;;;4.40;2.90;;;;;;;18.27;64.28;98542.40;238545;1191;139319;-57
2022/09/11 16:17:18;;;;;;;5.00;3.00;;;;;;;18.19;64.52;98540.48;238538;1191;139131;-58
2022/09/11 16:22:21;;;;;;;4.20;3.20;;;;;;;18.12;64.14;98537.60;238850;1190;139317;-58
2022/09/11 16:27:24;;;;;;;3.60;2.90;;;;;;;18.10;64.31;98541.52;238622;1190;139295;-57
2022/09/11 16:32:27;;;;;;;4.80;3.40;;;;;;;18.10;64.28;98547.83;238612;1191;139728;-57
2022/09/11 16:37:34;;;;;;;4.50;3.40;;;;;;;18.04;64.08;98558.37;238574;1190;139145;-57
2022/09/11 16:42:39;;;;;;;4.10;3.00;;;;;;;17.95;63.97;98563.02;238635;1190;139102;-58
2022/09/11 16:47:42;;;;;;;4.90;3.10;;;;;;;17.87;64.06;98570.08;238505;1190;139109;-58
2022/09/11 16:52:46;;;;;;;3.90;2.90;;;;;;;17.84;64.11;98579.52;238500;1191;139711;-56
2022/09/11 16:57:52;;;;;;;4.70;3.30;;;;;;;17.84;64.29;98591.83;238761;1190;139679;-57
2022/09/11 17:02:55;;;;;;;5.10;3.00;;;;;;;17.86;64.28;98590.16;238810;1190;139582;-57
2022/09/11 17:07:58;;;;;;;5.00;3.10;;;;;;;17.83;64.28;98597.42;238618;1190;139766;-57
2022/09/11 17:13:01;;;;;;;4.70;3.30;;;;;;;17.75;64.03;98602.91;238698;1190;138857;-57
2022/09/11 17:18:05;;;;;;;4.00;3.40;;;;;;;17.67;64.27;98606.33;238682;1190;140438;-58
2022/09/11 17:23:10;;;;;;;7.50;3.50;;;;;;;17.63;63.97;98612.25;238831;1190;139929;-58
2022/09/11 17:28:12;;;;;;;5.90;3.30;;;;;;;17.59;63.94;98617.67;238844;1191;138997;-58
2022/09/11 17:33:15;;;;;;;4.60;3.30;;;;;;;17.61;64.06;98620.73;238690;1191;139941;-56
2022/09/11 17:38:18;;;;;;;5.00;3.60;;;;;;;17.65;64.23;98630.38;238627;1192;139725;-56
2022/09/11 17:43:21;;;;;;;6.20;3.40;;;;;;;17.68;64.16;98632.57;238777;1190;138880;-58
2022/09/11 17:48:24;;;;;;;12.00;3.80;;;;;;;17.68;64.08;98639.09;238774;1190;139379;-58
2022/09/11 17:53:30;;;;;;;5.70;3.70;;;;;;;17.67;64.08;98645.08;238728;1191;139463;-59
2022/09/11 17:58:39;;;;;;;5.00;3.60;;;;;;;17.64;64.32;98654.56;238627;1190;138909;-59
2022/09/11 18:03:48;;;;;;;4.00;3.50;;;;;;;17.61;64.18;98661.84;238912;1190;138965;-58
2022/09/11 18:08:53;;;;;;;3.90;3.00;;;;;;;17.59;64.25;98656.59;238644;1190;139845;-58
2022/09/11 18:13:58;;;;;;;4.80;3.10;;;;;;;17.58;63.97;98660.33;238685;1192;139963;-59
2022/09/11 18:19:03;;;;;;;5.10;3.00;;;;;;;17.53;64.13;98666.02;238648;1190;139086;-59
2022/09/11 18:24:07;;;;;;;3.90;3.00;;;;;;;17.50;64.28;98668.21;238823;1190;140813;-59
2022/09/11 18:29:13;;;;;;;;;;;;;;;17.49;63.97;98666.04;238705;1190;139035;-60
2022/09/11 18:34:21;;;;;;;3.00;2.20;;;;;;;17.40;63.43;98664.77;238746;1191;126051;-59
2022/09/11 18:39:25;;;;;;;4.90;2.60;;;;;;;17.38;63.62;98680.58;238670;1190;139667;-58
2022/09/11 18:44:28;;;;;;;2.20;2.00;;;;;;;17.34;63.48;98688.96;238656;1190;138843;-60
2022/09/11 18:49:31;;;;;;;3.80;2.20;;;;;;;17.33;63.30;98689.09;238706;1190;139342;-58
2022/09/11 18:54:34;;;;;;;2.70;2.30;;;;;;;17.32;63.28;98689.40;238560;1190;140017;-59
2022/09/11 18:59:37;;;;;;;2.70;2.00;;;;;;;17.27;63.13;98692.93;238635;1190;138973;-58
2022/09/11 19:04:40;;;;;;;4.70;2.50;;;;;;;17.20;63.06;98692.48;238625;1190;139629;-57
2022/09/11 19:09:42;;;;;;;3.60;2.10;;;;;;;17.11;63.10;98703.59;238880;1190;139044;-57
2022/09/11 19:14:48;;;;;;;3.30;2.80;;;;;;;17.07;62.97;98703.09;238744;1191;139059;-57
2022/09/11 19:19:51;;;;;;;4.50;2.70;;;;;;;17.03;62.91;98705.91;238636;1191;139014;-58
2022/09/11 19:24:53;;;;;;;3.10;2.30;;;;;;;16.98;62.86;98708.17;238274;1191;138665;-57
2022/09/11 19:29:57;;;;;;;4.70;2.30;;;;;;;16.97;62.87;98718.47;238484;1190;140423;-57
2022/09/11 19:35:02;;;;;;;3.30;2.60;;;;;;;16.99;63.08;98717.06;238792;1190;139278;-56
2022/09/11 19:40:06;;;;;;;4.60;2.60;;;;;;;16.95;62.99;98719.72;238471;1190;139519;-57
2022/09/11 19:45:09;;;;;;;4.30;2.50;;;;;;;16.91;62.96;98723.70;238323;1191;139267;-57
2022/09/11 19:50:16;;;;;;;3.50;2.60;;;;;;;16.84;62.77;98726.32;238420;1190;139040;-57
2022/09/11 19:55:19;;;;;;;4.70;2.90;;;;;;;16.80;62.94;98728.70;238747;1190;138996;-56
2022/09/11 20:00:22;;;;;;;3.00;2.70;;;;;;;16.76;63.11;98736.49;238655;1191;139509;-60
2022/09/11 20:05:25;;;;;;;5.00;2.70;;;;;;;16.75;63.06;98735.98;238143;1190;138775;-58
2022/09/11 20:10:29;;;;;;;4.60;3.00;;;;;;;16.74;63.23;98737.40;238716;1191;139879;-56
2022/09/11 20:15:34;;;;;;;4.90;2.90;;;;;;;16.75;63.39;98735.70;238776;1190;140802;-58
2022/09/11 20:20:39;;;;;;;6.20;3.10;;;;;;;16.78;63.61;98737.61;238689;1190;139065;-58
2022/09/11 20:25:47;;;;;;;6.90;3.20;;;;;;;16.78;63.76;98732.80;238571;1190;140326;-58
2022/09/11 20:30:50;;;;;;;5.30;3.60;;;;;;;16.75;63.77;98734.65;238650;1191;139834;-59
2022/09/11 20:35:53;;;;;;;4.70;2.90;;;;;;;16.72;63.61;98735.69;238790;1190;139261;-57
2022/09/11 20:40:56;;;;;;;5.20;3.20;;;;;;;16.65;63.69;98732.34;238504;1191;139548;-56
2022/09/11 20:46:00;;;;;;;5.00;3.10;;;;;;;16.62;63.75;98739.62;238508;1191;140483;-56
2022/09/11 20:51:05;;;;;;;5.40;3.50;;;;;;;16.60;64.18;98741.63;238744;1191;139977;-56
2022/09/11 20:56:10;;;;;;;;;;;;;;;16.57;64.12;98746.02;238825;1190;140200;-57
2022/09/11 21:01:17;;;;;;;4.60;3.40;;;;;;;16.53;64.14;98752.06;238611;1190;126374;-57
2022/09/11 21:06:22;;;;;;;4.70;3.70;;;;;;;16.49;64.16;98751.05;238804;1190;138934;-57
2022/09/11 21:11:29;;;;;;;4.50;3.40;;;;;;;16.42;64.40;98752.60;238462;1191;139013;-57
2022/09/11 21:16:33;;;;;;;4.20;3.20;;;;;;;16.38;64.40;98756.75;238819;1191;139324;-56
2022/09/11 21:21:36;;;;;;;4.70;3.80;;;;;;;16.33;64.54;98759.30;238824;1190;139814;-56
2022/09/11 21:26:41;;;;;;;6.40;3.40;;;;;;;16.31;64.59;98750.34;238537;1191;139995;-55
2022/09/11 21:31:44;;;;;;;4.70;3.60;;;;;;;16.27;64.51;98752.27;238566;1190;138747;-57
2022/09/11 21:36:47;;;;;;;6.70;4.20;;;;;;;16.25;64.92;98755.30;238792;1190;139021;-56
2022/09/11 21:41:50;;;;;;;5.90;4.00;;;;;;;16.19;64.59;98760.39;238642;1191;139532;-57
2022/09/11 21:46:53;;;;;;;6.70;4.40;;;;;;;16.09;64.47;98763.73;238392;1191;140135;-57
2022/09/11 21:51:56;;;;;;;6.50;4.50;;;;;;;16.03;64.79;98763.57;238764;1190;139263;-57
2022/09/11 21:56:59;;;;;;;6.90;4.10;;;;;;;15.99;64.86;98761.44;238700;1190;139517;-56
2022/09/11 22:02:02;;;;;;;5.90;4.20;;;;;;;15.96;64.77;98759.24;238607;1190;138911;-58
2022/09/11 22:07:06;;;;;;;5.50;4.10;;;;;;;15.91;64.83;98760.73;238459;1191;139063;-57
2022/09/11 22:12:09;;;;;;;6.70;4.50;;;;;;;15.86;65.09;98759.91;238555;1190;138984;-57
2022/09/11 22:17:12;;;;;;;7.00;4.80;;;;;;;15.81;65.24;98765.38;238763;1190;139171;-57
2022/09/11 22:22:15;;;;;;;7.00;4.20;;;;;;;15.77;65.03;98768.88;238890;1190;138997;-57
2022/09/11 22:27:18;;;;;;;7.70;4.30;;;;;;;15.69;65.15;98766.77;238429;1191;139002;-57
2022/09/11 22:32:21;;;;;;;5.50;3.60;;;;;;;15.67;65.32;98769.47;238569;1191;139221;-58
2022/09/11 22:37:24;;;;;;;8.40;4.50;;;;;;;15.70;65.29;98770.96;238653;1190;139491;-58
2022/09/11 22:42:29;;;;;;;9.20;4.50;;;;;;;15.69;65.38;98769.06;238674;1191;138857;-56
2022/09/11 22:47:33;;;;;;;6.90;4.60;;;;;;;15.68;65.40;98770.96;238414;1191;139405;-59
2022/09/11 22:52:36;;;;;;;6.10;4.60;;;;;;;15.66;65.32;98776.93;238700;1190;139453;-58
2022/09/11 22:57:39;;;;;;;5.90;4.40;;;;;;;15.56;65.28;98779.55;238899;1190;139217;-59
2022/09/11 23:02:42;;;;;;;7.10;4.50;;;;;;;15.55;65.57;98778.66;238747;1190;139260;-60
2022/09/11 23:07:49;;;;;;;6.40;4.30;;;;;;;15.54;65.38;98781.76;238576;1191;139673;-58
2022/09/11 23:12:52;;;;;;;6.40;4.40;;;;;;;15.52;65.57;98777.52;238445;1190;139195;-58
2022/09/11 23:17:56;;;;;;;8.00;4.70;;;;;;;15.50;65.73;98782.48;238689;1190;138968;-58
2022/09/11 23:23:02;;;;;;;5.90;4.80;;;;;;;15.47;65.76;98785.83;238640;1191;139229;-60
2022/09/11 23:28:05;;;;;;;8.40;4.40;;;;;;;15.41;65.57;98783.69;238564;1191;139068;-60